Time;durP1;ratioP1;P1;durP2;ratioP2;P2;SDS_P1;SDS_P2;PMS_P1;PMS_P2;Temp;Humidity;BMP_temperature;BMP_pressure;BME280_temperature;BME280_humidity;BME280_pressure;Samples;Min_cycle;Max_cycle;Signal;HPM_P1;HPM_P2
2020/12/11 00:00:44;;;;;;;21.88;10.63;;;2.00;99.90;;;;;;4980425;28;20077;-68
2020/12/11 00:03:12;;;;;;;24.05;10.95;;;2.00;99.90;;;;;;4980807;28;20045;-68
2020/12/11 00:05:39;;;;;;;20.48;9.25;;;1.90;99.90;;;;;;4980526;28;20033;-68
2020/12/11 00:08:09;;;;;;;18.02;8.88;;;1.90;99.90;;;;;;4995604;28;20023;-68
2020/12/11 00:10:37;;;;;;;21.90;10.68;;;1.90;99.90;;;;;;4981120;28;20411;-68
2020/12/11 00:13:04;;;;;;;21.38;9.70;;;1.90;99.90;;;;;;4979750;28;20031;-68
2020/12/11 00:15:32;;;;;;;23.17;11.05;;;1.90;99.90;;;;;;4980812;28;20026;-68
2020/12/11 00:18:00;;;;;;;22.08;10.88;;;1.90;99.90;;;;;;4980294;28;20019;-68
2020/12/11 00:20:28;;;;;;;26.58;11.07;;;1.80;99.90;;;;;;4980782;28;20030;-68
2020/12/11 00:22:56;;;;;;;26.15;10.57;;;1.80;99.90;;;;;;4980202;28;20023;-68
2020/12/11 00:25:23;;;;;;;25.20;12.00;;;1.80;99.90;;;;;;4995305;28;20348;-68
2020/12/11 00:27:50;;;;;;;18.75;9.48;;;1.80;99.90;;;;;;4994882;28;20435;-68
2020/12/11 00:30:18;;;;;;;22.05;9.68;;;1.70;99.90;;;;;;4980078;28;20486;-68
2020/12/11 00:32:45;;;;;;;19.00;9.10;;;1.70;99.90;;;;;;4980021;28;20110;-68
2020/12/11 00:35:14;;;;;;;25.02;11.38;;;1.70;99.90;;;;;;4980347;28;20049;-68
2020/12/11 00:37:43;;;;;;;23.60;11.50;;;1.70;99.90;;;;;;4979943;28;20023;-68
2020/12/11 00:40:10;;;;;;;23.73;11.73;;;1.70;99.90;;;;;;4995028;28;20027;-68
2020/12/11 00:42:39;;;;;;;27.00;12.13;;;1.70;99.90;;;;;;4980296;28;20018;-68
2020/12/11 00:45:07;;;;;;;29.33;13.45;;;1.70;99.90;;;;;;4979754;28;20442;-68
2020/12/11 00:47:36;;;;;;;31.60;13.13;;;1.60;99.90;;;;;;4979774;28;20026;-68
2020/12/11 00:50:04;;;;;;;24.27;12.13;;;1.60;99.90;;;;;;4980259;28;20027;-68
2020/12/11 00:52:31;;;;;;;29.73;12.65;;;1.60;99.90;;;;;;4980148;28;20434;-68
2020/12/11 00:54:59;;;;;;;25.65;11.85;;;1.60;99.90;;;;;;4980052;28;20037;-68
2020/12/11 00:57:27;;;;;;;22.30;10.70;;;1.60;99.90;;;;;;4979488;28;20105;-68
2020/12/11 00:59:55;;;;;;;27.40;11.05;;;1.60;99.90;;;;;;4979451;28;20347;-68
2020/12/11 01:02:23;;;;;;;25.52;11.82;;;1.60;99.90;;;;;;4980029;28;20469;-68
2020/12/11 01:04:50;;;;;;;31.67;13.65;;;1.60;99.90;;;;;;4979436;28;20110;-68
2020/12/11 01:07:18;;;;;;;28.38;13.02;;;1.50;99.90;;;;;;4979377;28;20419;-68
2020/12/11 01:09:45;;;;;;;33.70;14.18;;;1.50;99.90;;;;;;4979333;28;20482;-68
2020/12/11 01:12:13;;;;;;;33.38;13.98;;;1.50;99.90;;;;;;4979264;28;20026;-68
2020/12/11 01:14:40;;;;;;;31.55;13.30;;;1.50;99.90;;;;;;4979131;28;20026;-68
2020/12/11 01:17:08;;;;;;;29.23;13.27;;;1.50;99.90;;;;;;4979214;28;20030;-68
2020/12/11 01:19:35;;;;;;;30.42;14.23;;;1.50;99.90;;;;;;4979684;28;20034;-68
2020/12/11 01:22:04;;;;;;;22.45;8.93;;;1.50;99.90;;;;;;4979556;28;20026;-68
2020/12/11 01:24:32;;;;;;;34.42;14.75;;;1.50;99.90;;;;;;4979086;28;20419;-68
2020/12/11 01:27:00;;;;;;;29.17;12.98;;;1.50;99.90;;;;;;4979595;28;20031;-68
2020/12/11 01:29:27;;;;;;;30.98;13.15;;;1.50;99.90;;;;;;4978983;28;20093;-68
2020/12/11 01:31:59;;;;;;;32.75;13.23;;;1.50;99.90;;;;;;4978947;28;20026;-68
2020/12/11 01:34:27;;;;;;;29.08;13.70;;;1.50;99.90;;;;;;4978781;28;20049;-68
2020/12/11 01:36:55;;;;;;;24.10;11.38;;;1.50;99.90;;;;;;4978858;28;20053;-68
2020/12/11 01:39:22;;;;;;;35.15;14.05;;;1.50;99.90;;;;;;4978095;28;20031;-68
2020/12/11 01:41:51;;;;;;;39.38;16.60;;;1.50;99.90;;;;;;4993896;28;20023;-68
2020/12/11 01:44:18;;;;;;;30.48;14.55;;;1.50;99.90;;;;;;4978604;28;20023;-68
2020/12/11 01:46:50;;;;;;;33.72;14.35;;;1.50;99.90;;;;;;4979195;28;20086;-68
2020/12/11 01:49:18;;;;;;;18.00;8.93;;;1.50;99.90;;;;;;4978605;28;20054;-68
2020/12/11 01:51:47;;;;;;;28.88;13.27;;;1.50;99.90;;;;;;4979103;28;20404;-68
2020/12/11 01:54:15;;;;;;;31.55;13.68;;;1.50;99.90;;;;;;4978718;28;20041;-68
2020/12/11 01:57:04;;;;;;;31.25;12.95;;;1.50;99.90;;;;;;4979040;28;20030;-68
2020/12/11 01:59:42;;;;;;;30.23;12.55;;;1.50;99.90;;;;;;4978264;28;20039;-68
2020/12/11 02:02:14;;;;;;;28.52;13.05;;;1.50;99.90;;;;;;4978308;28;20027;-68
2020/12/11 02:04:42;;;;;;;29.85;12.68;;;1.50;99.90;;;;;;4978912;28;20027;-68
2020/12/11 02:07:10;;;;;;;29.92;13.30;;;1.50;99.90;;;;;;4978296;28;20041;-68
2020/12/11 02:09:38;;;;;;;31.88;12.30;;;1.50;99.90;;;;;;4978249;28;20025;-68
2020/12/11 02:12:06;;;;;;;29.80;13.32;;;1.50;99.90;;;;;;4978518;28;20327;-68
2020/12/11 02:14:35;;;;;;;24.00;12.45;;;1.50;99.90;;;;;;4978598;28;20026;-68
2020/12/11 02:17:05;;;;;;;31.50;12.45;;;1.50;99.90;;;;;;4978085;28;20026;-68
2020/12/11 02:19:33;;;;;;;25.55;13.00;;;1.50;99.90;;;;;;4978079;28;20019;-68
2020/12/11 02:22:06;;;;;;;22.95;9.50;;;1.50;99.90;;;;;;4978079;28;20041;-68
2020/12/11 02:24:34;;;;;;;27.50;10.88;;;1.50;99.90;;;;;;4978483;28;20315;-68
2020/12/11 02:27:03;;;;;;;27.52;12.98;;;1.50;99.90;;;;;;4978103;28;20019;-68
2020/12/11 02:29:31;;;;;;;28.20;13.63;;;1.50;99.90;;;;;;4978469;28;20050;-68
2020/12/11 02:31:58;;;;;;;27.67;13.98;;;1.50;99.90;;;;;;4977946;28;20027;-68
2020/12/11 02:34:25;;;;;;;28.15;12.43;;;1.50;99.90;;;;;;4976818;28;20076;-68
2020/12/11 02:36:52;;;;;;;34.30;15.40;;;1.50;99.90;;;;;;4977875;28;20093;-68
2020/12/11 02:39:20;;;;;;;31.90;13.35;;;1.50;99.90;;;;;;4977379;28;20431;-68
2020/12/11 02:41:51;;;;;;;33.13;12.40;;;1.50;99.90;;;;;;4978028;28;20023;-68
2020/12/11 02:44:18;;;;;;;33.30;13.73;;;1.50;99.90;;;;;;4978259;28;20058;-68
2020/12/11 02:46:46;;;;;;;31.25;12.63;;;1.50;99.90;;;;;;4978282;28;20033;-68
2020/12/11 02:49:13;;;;;;;25.27;9.68;;;1.50;99.90;;;;;;4978241;28;20023;-68
2020/12/11 02:51:41;;;;;;;28.08;12.73;;;1.50;99.90;;;;;;4977250;28;20023;-68
2020/12/11 02:54:08;;;;;;;28.35;12.63;;;1.50;99.90;;;;;;4978131;28;20033;-68
2020/12/11 02:56:36;;;;;;;32.80;12.90;;;1.50;99.90;;;;;;4977665;28;20019;-68
2020/12/11 02:59:03;;;;;;;29.27;10.63;;;1.50;99.90;;;;;;4977258;28;20042;-68
2020/12/11 03:01:30;;;;;;;28.15;12.98;;;1.50;99.90;;;;;;4992796;28;20069;-68
2020/12/11 03:04:00;;;;;;;27.83;13.02;;;1.50;99.90;;;;;;4977551;28;20034;-68
2020/12/11 03:06:29;;;;;;;28.48;12.95;;;1.50;99.90;;;;;;4977543;28;20331;-68
2020/12/11 03:08:58;;;;;;;27.02;11.30;;;1.50;99.90;;;;;;4977531;28;20030;-68
2020/12/11 03:11:26;;;;;;;29.23;12.00;;;1.50;99.90;;;;;;4992599;28;20066;-68
2020/12/11 03:13:53;;;;;;;24.80;10.70;;;1.50;99.90;;;;;;4977325;28;20062;-68
2020/12/11 03:16:21;;;;;;;27.35;11.40;;;1.50;99.90;;;;;;4977470;28;20034;-68
2020/12/11 03:18:48;;;;;;;23.95;10.05;;;1.50;99.90;;;;;;4977445;28;20105;-68
2020/12/11 03:21:16;;;;;;;34.35;12.77;;;1.50;99.90;;;;;;4977357;28;20019;-68
2020/12/11 03:23:45;;;;;;;28.42;12.32;;;1.50;99.90;;;;;;4977956;28;20047;-68
2020/12/11 03:26:12;;;;;;;26.40;12.38;;;1.60;99.90;;;;;;4977648;28;20098;-68
2020/12/11 03:28:39;;;;;;;25.83;12.23;;;1.50;99.90;;;;;;4977323;28;20074;-68
2020/12/11 03:31:07;;;;;;;29.67;13.23;;;1.60;99.90;;;;;;4977966;28;20023;-68
2020/12/11 03:33:34;;;;;;;32.65;12.90;;;1.50;99.90;;;;;;4977270;28;20027;-68
2020/12/11 03:36:02;;;;;;;24.40;11.75;;;1.50;99.90;;;;;;4978558;28;20335;-68
2020/12/11 03:38:29;;;;;;;24.92;12.35;;;1.60;99.90;;;;;;4992465;28;20023;-68
2020/12/11 03:40:57;;;;;;;25.05;11.35;;;1.60;99.90;;;;;;4977242;28;20106;-68
2020/12/11 03:43:24;;;;;;;23.42;8.52;;;1.60;99.90;;;;;;4977708;28;20100;-68
2020/12/11 03:45:52;;;;;;;24.83;10.93;;;1.60;99.90;;;;;;4977932;28;20030;-68
2020/12/11 03:48:20;;;;;;;26.45;10.55;;;1.60;99.90;;;;;;4977182;28;20077;-68
2020/12/11 03:50:48;;;;;;;24.42;11.15;;;1.60;99.90;;;;;;4977785;28;20355;-68
2020/12/11 03:53:15;;;;;;;26.52;11.40;;;1.60;99.90;;;;;;4977111;28;20049;-68
2020/12/11 03:55:43;;;;;;;24.05;10.95;;;1.60;99.90;;;;;;4992396;28;20050;-68
2020/12/11 03:58:10;;;;;;;20.88;9.80;;;1.60;99.90;;;;;;4992168;28;20019;-68
2020/12/11 04:00:37;;;;;;;20.27;8.82;;;1.60;99.90;;;;;;4992033;28;20049;-68
2020/12/11 04:03:05;;;;;;;20.90;9.60;;;1.60;99.90;;;;;;4978622;28;20030;-68
2020/12/11 04:05:33;;;;;;;18.83;9.38;;;1.60;99.90;;;;;;4995780;28;20033;-68
2020/12/11 04:08:00;;;;;;;19.63;10.13;;;1.60;99.90;;;;;;4981073;28;20030;-68
2020/12/11 04:10:28;;;;;;;23.65;9.95;;;1.60;99.90;;;;;;4980417;28;20028;-68
2020/12/11 04:12:56;;;;;;;21.20;9.95;;;1.70;99.90;;;;;;4980326;28;20019;-68
2020/12/11 04:15:23;;;;;;;18.70;9.40;;;1.70;99.90;;;;;;4995483;28;20039;-68
2020/12/11 04:17:51;;;;;;;15.95;7.28;;;1.70;99.90;;;;;;4980274;28;20018;-68
2020/12/11 04:20:19;;;;;;;19.08;8.95;;;1.60;99.90;;;;;;4980965;28;20023;-68
2020/12/11 04:22:47;;;;;;;23.00;10.25;;;1.70;99.90;;;;;;4995402;28;20331;-68
2020/12/11 04:25:14;;;;;;;18.05;9.05;;;1.70;99.90;;;;;;4980750;28;20037;-68
2020/12/11 04:27:41;;;;;;;21.63;10.05;;;1.70;99.90;;;;;;4995261;28;20423;-68
2020/12/11 04:30:09;;;;;;;19.92;10.93;;;1.70;99.90;;;;;;4980767;28;20038;-68
2020/12/11 04:32:37;;;;;;;21.67;10.35;;;1.70;99.90;;;;;;4980051;28;20027;-68
2020/12/11 04:35:05;;;;;;;20.23;9.57;;;1.70;99.90;;;;;;4980189;28;20022;-68
2020/12/11 04:37:33;;;;;;;19.95;9.13;;;1.70;99.90;;;;;;4995127;28;20121;-68
2020/12/11 04:40:01;;;;;;;18.40;9.18;;;1.70;99.90;;;;;;4980112;28;20015;-68
2020/12/11 04:42:33;;;;;;;23.65;10.88;;;1.70;99.90;;;;;;4979756;28;20101;-68
2020/12/11 04:45:00;;;;;;;18.08;9.20;;;1.70;99.90;;;;;;4980418;28;20030;-68
2020/12/11 04:47:28;;;;;;;17.83;8.75;;;1.70;99.90;;;;;;4979818;28;20038;-68
2020/12/11 04:49:59;;;;;;;22.52;9.85;;;1.70;99.90;;;;;;4979950;28;20067;-68
2020/12/11 04:52:31;;;;;;;21.13;10.27;;;1.70;99.90;;;;;;4980228;28;20023;-68
2020/12/11 04:55:03;;;;;;;17.95;9.65;;;1.80;99.90;;;;;;4979611;28;20042;-68
2020/12/11 04:57:33;;;;;;;22.55;10.93;;;1.80;99.90;;;;;;4979486;28;20162;-68
2020/12/11 05:00:00;;;;;;;18.20;9.43;;;1.70;99.90;;;;;;4979447;28;20047;-68
2020/12/11 05:02:29;;;;;;;19.35;9.90;;;1.80;99.90;;;;;;4980064;28;20025;-68
2020/12/11 05:04:58;;;;;;;20.83;8.77;;;1.80;99.90;;;;;;4994550;28;20027;-68
2020/12/11 05:07:27;;;;;;;18.48;9.43;;;1.80;99.90;;;;;;4979340;28;20041;-68
2020/12/11 05:09:58;;;;;;;20.52;10.32;;;1.80;99.90;;;;;;4979525;28;20033;-68
2020/12/11 05:12:26;;;;;;;16.90;8.52;;;1.80;99.90;;;;;;4980097;28;20314;-68
2020/12/11 05:15:04;;;;;;;20.52;9.63;;;1.80;99.90;;;;;;4993239;28;20038;-68
2020/12/11 05:17:34;;;;;;;23.55;9.57;;;1.80;99.90;;;;;;4979773;28;20089;-68
2020/12/11 05:20:04;;;;;;;14.30;7.60;;;1.80;99.90;;;;;;4979221;28;20026;-68
2020/12/11 05:22:36;;;;;;;20.00;9.70;;;1.80;99.90;;;;;;4979714;28;20026;-68
2020/12/11 05:25:11;;;;;;;19.50;8.50;;;1.80;99.90;;;;;;4979087;28;20110;-68
2020/12/11 05:27:42;;;;;;;20.13;9.40;;;1.80;99.90;;;;;;4979087;28;20030;-68
2020/12/11 05:30:16;;;;;;;12.80;6.75;;;1.80;99.90;;;;;;4979554;28;20058;-68
2020/12/11 05:32:58;;;;;;;11.57;6.10;;;1.80;99.90;;;;;;4994054;28;20038;-68
2020/12/11 05:35:32;;;;;;;16.75;8.10;;;1.80;99.90;;;;;;4978990;28;20027;-68
2020/12/11 05:38:05;;;;;;;19.50;9.50;;;1.80;99.90;;;;;;4978813;28;20106;-68
2020/12/11 05:40:37;;;;;;;19.95;9.00;;;1.90;99.90;;;;;;4978840;28;20046;-68
2020/12/11 05:43:15;;;;;;;18.13;8.63;;;1.90;99.90;;;;;;4979188;28;20023;-68
2020/12/11 05:45:53;;;;;;;19.83;8.85;;;1.90;99.90;;;;;;4978484;28;20058;-68
2020/12/11 05:48:26;;;;;;;16.92;7.97;;;1.90;99.90;;;;;;4979186;28;20117;-68
2020/12/11 05:50:54;;;;;;;17.80;9.43;;;1.90;99.90;;;;;;4978663;28;20034;-68
2020/12/11 05:53:21;;;;;;;19.63;9.30;;;1.90;99.90;;;;;;4979129;28;20027;-68
2020/12/11 05:55:52;;;;;;;20.30;10.32;;;1.90;99.90;;;;;;4978921;28;20026;-68
2020/12/11 05:58:21;;;;;;;19.65;9.05;;;1.90;99.90;;;;;;4978338;28;20034;-68
2020/12/11 06:00:53;;;;;;;19.95;9.15;;;1.90;99.90;;;;;;4978268;28;20038;-68
2020/12/11 06:03:21;;;;;;;17.25;9.00;;;1.90;99.90;;;;;;4978672;28;20323;-68
2020/12/11 06:05:51;;;;;;;19.27;10.02;;;1.90;99.90;;;;;;4978554;28;20038;-68
2020/12/11 06:08:22;;;;;;;15.68;7.80;;;1.90;99.90;;;;;;4978326;28;20050;-68
2020/12/11 06:10:50;;;;;;;18.75;9.18;;;1.90;99.90;;;;;;4993496;28;20127;-68
2020/12/11 06:13:48;;;;;;;17.02;8.52;;;1.90;99.90;;;;;;4978527;28;20029;-68
2020/12/11 06:16:20;;;;;;;18.10;9.23;;;1.90;99.90;;;;;;4978143;28;20106;-68
2020/12/11 06:18:53;;;;;;;19.20;8.75;;;1.90;99.90;;;;;;4978272;28;20434;-68
2020/12/11 06:21:22;;;;;;;18.67;9.45;;;1.90;99.90;;;;;;4978198;28;20111;-68
2020/12/11 06:23:50;;;;;;;9.45;5.88;;;1.90;99.90;;;;;;4978010;28;20061;-68
2020/12/11 06:26:18;;;;;;;20.30;10.57;;;1.90;99.90;;;;;;4992850;28;20026;-68
2020/12/11 06:28:55;;;;;;;21.33;9.80;;;1.90;99.90;;;;;;4978449;28;20027;-68
2020/12/11 06:31:23;;;;;;;19.95;9.52;;;1.90;99.90;;;;;;4993099;28;20034;-68
2020/12/11 06:33:56;;;;;;;21.08;9.23;;;1.80;99.90;;;;;;4992993;28;20023;-68
2020/12/11 06:36:23;;;;;;;13.02;6.55;;;1.80;99.90;;;;;;4978400;28;20423;-68
2020/12/11 06:38:56;;;;;;;21.48;9.63;;;1.80;99.90;;;;;;4977867;28;20073;-68
2020/12/11 06:41:33;;;;;;;13.68;7.95;;;1.80;99.90;;;;;;4978322;28;20419;-68
2020/12/11 06:44:11;;;;;;;17.67;9.85;;;1.80;99.90;;;;;;4978042;28;20027;-68
2020/12/11 06:46:39;;;;;;;12.93;6.88;;;1.80;99.90;;;;;;4978322;28;20037;-68
2020/12/11 06:49:08;;;;;;;15.77;8.32;;;1.80;99.90;;;;;;4992920;28;20034;-68
2020/12/11 06:51:43;;;;;;;10.73;5.85;;;1.90;99.90;;;;;;4978278;28;20023;-68
2020/12/11 06:54:31;;;;;;;17.20;8.50;;;1.90;99.90;;;;;;4978173;28;20102;-67
2020/12/11 06:57:02;;;;;;;14.90;7.95;;;1.80;99.90;;;;;;4973012;28;20046;-67
2020/12/11 06:59:41;;;;;;;14.45;7.40;;;1.80;99.90;;;;;;4977399;28;20499;-67
2020/12/11 07:02:14;;;;;;;12.75;6.82;;;1.90;99.90;;;;;;4978085;28;20030;-67
2020/12/11 07:04:43;;;;;;;14.52;7.80;;;1.90;99.90;;;;;;4978411;28;20209;-67
2020/12/11 07:07:14;;;;;;;16.63;9.15;;;1.90;99.90;;;;;;4977412;28;20037;-66
2020/12/11 07:09:51;;;;;;;14.40;7.40;;;1.90;99.90;;;;;;4978191;28;20025;-66
2020/12/11 07:12:19;;;;;;;15.80;8.35;;;1.90;99.90;;;;;;4977520;28;20027;-71
2020/12/11 07:14:47;;;;;;;15.95;7.78;;;1.90;99.90;;;;;;4977994;28;20031;-70
2020/12/11 07:17:29;;;;;;;15.80;8.20;;;1.90;99.90;;;;;;4992854;28;20033;-70
2020/12/11 07:20:00;;;;;;;16.00;7.55;;;1.90;99.90;;;;;;4977658;28;20117;-68
2020/12/11 07:22:31;;;;;;;8.10;4.57;;;1.90;99.90;;;;;;4992584;28;20022;-69
2020/12/11 07:24:59;;;;;;;13.60;7.53;;;1.90;99.90;;;;;;4978005;28;20106;-70
2020/12/11 07:27:30;;;;;;;15.52;7.55;;;1.90;99.90;;;;;;4977385;28;20031;-68
2020/12/11 07:29:58;;;;;;;13.98;7.88;;;1.90;99.90;;;;;;4977654;28;20031;-69
2020/12/11 07:32:26;;;;;;;20.23;7.93;;;1.90;99.90;;;;;;4977225;28;20323;-69
2020/12/11 07:34:53;;;;;;;14.13;7.30;;;1.90;99.90;;;;;;4977921;28;20037;-69
2020/12/11 07:37:20;;;;;;;14.40;7.65;;;1.90;99.90;;;;;;4978315;28;20026;-69
2020/12/11 07:39:48;;;;;;;14.73;7.75;;;2.00;99.90;;;;;;4981579;28;20038;-70
2020/12/11 07:42:24;;;;;;;14.32;7.88;;;2.00;99.90;;;;;;4980904;28;20027;-70
2020/12/11 07:44:51;;;;;;;;;;;1.90;99.90;;;;;;4981444;28;20031;-70
2020/12/11 07:47:18;;;;;;;9.80;5.78;;;2.00;99.90;;;;;;4981145;28;19906;-71
2020/12/11 07:49:47;;;;;;;14.57;7.75;;;2.00;99.90;;;;;;4995897;28;20419;-66
2020/12/11 07:52:22;;;;;;;12.90;5.95;;;2.10;99.90;;;;;;4995896;28;20435;-66
2020/12/11 07:54:50;;;;;;;16.50;7.55;;;2.10;99.90;;;;;;4980675;28;20345;-68
2020/12/11 07:57:29;;;;;;;15.30;7.50;;;2.10;99.90;;;;;;4980584;28;20027;-66
2020/12/11 08:00:06;;;;;;;10.45;6.45;;;2.10;99.90;;;;;;4980762;28;20121;-67
2020/12/11 08:02:35;;;;;;;16.02;7.90;;;2.10;99.90;;;;;;4980682;28;20124;-66
2020/12/11 08:05:06;;;;;;;18.63;8.98;;;2.10;99.90;;;;;;4980982;28;20023;-66
2020/12/11 08:07:35;;;;;;;13.32;7.18;;;2.10;99.90;;;;;;4980697;28;20022;-66
2020/12/11 08:10:14;;;;;;;16.55;7.45;;;2.10;99.90;;;;;;4980459;28;20106;-67
2020/12/11 08:12:42;;;;;;;13.55;6.82;;;2.10;99.90;;;;;;4980444;28;20034;-67
2020/12/11 08:15:12;;;;;;;15.65;7.78;;;2.10;99.90;;;;;;4980305;28;20031;-68
2020/12/11 08:17:41;;;;;;;11.48;5.65;;;2.20;99.90;;;;;;4980546;28;20032;-68
2020/12/11 08:20:09;;;;;;;12.10;6.55;;;2.20;99.90;;;;;;4980531;28;20030;-67
2020/12/11 08:22:39;;;;;;;16.02;7.95;;;2.20;99.90;;;;;;4995426;28;20073;-67
2020/12/11 08:25:23;;;;;;;15.23;7.88;;;2.20;99.90;;;;;;4980747;28;20407;-67
2020/12/11 08:27:51;;;;;;;15.07;7.82;;;2.30;99.90;;;;;;4980308;28;20030;-67
2020/12/11 08:30:19;;;;;;;14.52;6.97;;;2.20;99.90;;;;;;4980649;28;20030;-67
2020/12/11 08:32:48;;;;;;;16.30;7.72;;;2.30;99.90;;;;;;4980062;28;20059;-67
2020/12/11 08:35:24;;;;;;;15.50;7.43;;;2.30;99.90;;;;;;4995050;28;20023;-67
2020/12/11 08:37:56;;;;;;;11.50;6.55;;;2.30;99.90;;;;;;4980207;28;20019;-67
2020/12/11 08:40:29;;;;;;;13.55;7.22;;;2.40;99.90;;;;;;4995050;28;20034;-67
2020/12/11 08:51:25;;;;;;;15.13;7.60;;;2.50;99.90;;;;;;4980069;28;20027;-64
2020/12/11 08:53:56;;;;;;;13.93;7.45;;;2.50;99.90;;;;;;4979939;28;20030;-67
2020/12/11 08:56:24;;;;;;;16.02;7.28;;;2.50;99.90;;;;;;4979643;28;20027;-68
2020/12/11 08:58:52;;;;;;;14.00;7.55;;;2.60;99.90;;;;;;4979479;28;20054;-68
2020/12/11 09:01:20;;;;;;;14.15;7.68;;;2.60;99.90;;;;;;4980036;28;20046;-67
2020/12/11 09:03:48;;;;;;;14.95;7.22;;;2.60;99.90;;;;;;4980044;28;20031;-72
2020/12/11 09:06:15;;;;;;;15.32;7.50;;;2.60;99.90;;;;;;4980037;28;20030;-68
2020/12/11 09:08:43;;;;;;;16.52;7.47;;;2.60;99.90;;;;;;4979475;28;20022;-68
2020/12/11 09:11:11;;;;;;;14.10;7.72;;;2.60;99.90;;;;;;4979365;28;20027;-68
2020/12/11 09:13:41;;;;;;;15.88;8.25;;;2.60;99.90;;;;;;4979605;28;20019;-68
2020/12/11 09:16:08;;;;;;;14.02;6.55;;;2.70;99.90;;;;;;4979228;28;20027;-68
2020/12/11 09:18:37;;;;;;;11.93;6.97;;;2.70;99.90;;;;;;4979223;28;20023;-67
2020/12/11 09:21:04;;;;;;;16.95;6.57;;;2.70;99.90;;;;;;4980188;28;20310;-67
2020/12/11 09:23:32;;;;;;;12.93;7.35;;;2.80;99.90;;;;;;4979834;28;20029;-67
2020/12/11 09:26:00;;;;;;;15.45;8.27;;;2.80;99.90;;;;;;4979117;28;20435;-67
2020/12/11 09:28:28;;;;;;;20.38;8.20;;;2.80;99.90;;;;;;4978961;28;20027;-67
2020/12/11 09:30:56;;;;;;;21.33;10.50;;;2.90;99.90;;;;;;4979450;28;20034;-67
2020/12/11 09:33:27;;;;;;;21.77;8.88;;;2.90;99.90;;;;;;4978988;28;20097;-67
2020/12/11 09:35:55;;;;;;;21.38;8.88;;;2.90;99.90;;;;;;4978818;28;20034;-67
2020/12/11 09:38:23;;;;;;;16.05;7.82;;;3.00;99.90;;;;;;4978903;28;20027;-67
2020/12/11 09:40:58;;;;;;;17.63;7.88;;;3.10;99.90;;;;;;4979381;28;20027;-67
2020/12/11 09:46:32;;;;;;;15.45;8.18;;;3.10;99.90;;;;;;4979040;28;20076;-67
2020/12/11 09:49:14;;;;;;;14.52;8.63;;;3.20;99.90;;;;;;4978720;28;20031;-67
2020/12/11 09:54:33;;;;;;;23.70;11.25;;;3.30;99.90;;;;;;4979086;28;20109;-67
2020/12/11 09:57:02;;;;;;;20.23;9.60;;;3.30;99.90;;;;;;4979342;28;20400;-67
2020/12/11 09:59:55;;;;;;;20.25;9.48;;;3.30;99.90;;;;;;4978286;28;20050;-68
2020/12/11 10:02:31;;;;;;;20.60;9.40;;;3.30;99.90;;;;;;4977595;28;20055;-67
2020/12/11 10:05:00;;;;;;;19.55;10.10;;;3.30;99.90;;;;;;4978371;28;20054;-67
2020/12/11 10:07:28;;;;;;;18.08;9.02;;;3.40;99.90;;;;;;4978274;28;20435;-68
2020/12/11 10:09:55;;;;;;;15.80;8.38;;;3.40;99.90;;;;;;4978800;28;20101;-68
2020/12/11 10:12:27;;;;;;;16.77;8.27;;;3.40;99.90;;;;;;4993417;28;20532;-68
2020/12/11 10:15:04;;;;;;;16.90;9.00;;;3.40;99.90;;;;;;4978136;28;20430;-68
2020/12/11 10:17:32;;;;;;;17.10;8.98;;;3.40;99.90;;;;;;4978780;28;20023;-68
2020/12/11 10:20:00;;;;;;;16.10;8.60;;;3.50;99.90;;;;;;4978120;28;20014;-67
2020/12/11 10:22:30;;;;;;;17.80;8.32;;;3.50;99.90;;;;;;4978568;28;20434;-67
2020/12/11 10:24:58;;;;;;;19.58;9.70;;;3.50;99.90;;;;;;4978221;28;20027;-67
2020/12/11 10:27:25;;;;;;;20.65;9.43;;;3.60;99.90;;;;;;4978026;28;20042;-67
2020/12/11 10:29:53;;;;;;;14.82;7.90;;;3.60;99.90;;;;;;4978473;28;20022;-67
2020/12/11 10:32:21;;;;;;;17.77;8.15;;;3.60;99.90;;;;;;4978213;28;20118;-67
2020/12/11 10:34:49;;;;;;;18.73;9.30;;;3.70;99.90;;;;;;4978029;28;20077;-67
2020/12/11 10:37:17;;;;;;;14.32;7.10;;;3.70;99.90;;;;;;4978423;28;20073;-67
2020/12/11 10:39:45;;;;;;;15.82;7.65;;;3.70;99.90;;;;;;4977765;28;20035;-67
2020/12/11 10:42:13;;;;;;;15.68;7.20;;;3.70;99.90;;;;;;4978354;28;20027;-67
2020/12/11 10:44:41;;;;;;;13.93;6.88;;;3.80;99.90;;;;;;4992969;28;20446;-67
2020/12/11 10:47:09;;;;;;;13.70;5.00;;;3.80;99.90;;;;;;4978160;28;20023;-67
2020/12/11 10:49:37;;;;;;;15.32;7.57;;;3.80;99.90;;;;;;4977640;28;20023;-67
2020/12/11 10:52:04;;;;;;;17.20;7.65;;;3.90;99.90;;;;;;4977621;28;20026;-67
2020/12/11 10:54:32;;;;;;;14.13;7.55;;;3.90;99.90;;;;;;4978173;28;20454;-67
2020/12/11 10:56:59;;;;;;;16.60;8.23;;;3.90;99.90;;;;;;4976746;28;20022;-67
2020/12/11 10:59:27;;;;;;;14.95;6.20;;;4.00;99.90;;;;;;4992449;28;20355;-68
2020/12/11 11:01:54;;;;;;;15.27;7.57;;;4.00;99.90;;;;;;4978089;28;20023;-67
2020/12/11 11:04:22;;;;;;;16.88;7.82;;;4.10;99.90;;;;;;4978214;28;20019;-67
2020/12/11 11:06:58;;;;;;;16.42;7.80;;;4.10;99.90;;;;;;4992664;28;20069;-68
2020/12/11 11:09:43;;;;;;;;;;;4.10;99.90;;;;;;4977903;28;20427;-67
2020/12/11 11:12:22;;;;;;;15.75;7.22;;;4.10;99.90;;;;;;4979662;28;19910;-67
2020/12/11 11:25:49;;;;;;;15.15;7.03;;;4.20;99.90;;;;;;4981664;28;20030;-67
2020/12/11 11:28:18;;;;;;;16.00;8.57;;;4.30;99.90;;;;;;4981701;28;20408;-67
2020/12/11 11:30:45;;;;;;;14.45;7.72;;;4.30;99.90;;;;;;4996643;28;20037;-67
2020/12/11 11:33:13;;;;;;;14.40;7.20;;;4.40;99.90;;;;;;4981124;28;20035;-67
2020/12/11 11:35:41;;;;;;;14.05;7.88;;;4.50;99.90;;;;;;4981593;28;20027;-68
2020/12/11 11:38:10;;;;;;;16.05;8.05;;;4.50;99.90;;;;;;4981241;28;20022;-68
2020/12/11 11:40:39;;;;;;;17.00;7.75;;;4.60;99.90;;;;;;4981016;28;20030;-67
2020/12/11 11:43:07;;;;;;;15.52;7.30;;;4.60;99.90;;;;;;4980972;28;20025;-70
2020/12/11 11:45:36;;;;;;;18.80;8.77;;;4.70;99.90;;;;;;4980925;28;20144;-68
2020/12/11 11:48:08;;;;;;;16.77;7.78;;;4.80;99.90;;;;;;4981008;28;20100;-67
2020/12/11 11:53:17;;;;;;;17.30;7.50;;;4.90;99.90;;;;;;4980822;28;20022;-66
2020/12/11 11:55:47;;;;;;;15.52;8.15;;;5.00;99.60;;;;;;4980956;28;20027;-66
2020/12/11 11:58:15;;;;;;;19.10;8.07;;;4.90;99.90;;;;;;4981349;28;20050;-66
2020/12/11 12:00:43;;;;;;;16.00;7.50;;;4.90;99.90;;;;;;4980519;28;20078;-66
2020/12/11 12:03:11;;;;;;;12.43;6.40;;;5.00;99.90;;;;;;4995873;28;20058;-67
2020/12/11 12:05:41;;;;;;;16.23;7.97;;;4.90;99.80;;;;;;4996018;28;20038;-69
2020/12/11 12:08:09;;;;;;;17.63;7.82;;;5.00;99.80;;;;;;4980509;28;20026;-67
2020/12/11 12:10:36;;;;;;;19.35;7.93;;;4.90;99.90;;;;;;4981049;28;20019;-67
2020/12/11 12:13:04;;;;;;;14.93;7.47;;;4.90;99.90;;;;;;4980993;28;20061;-68
2020/12/11 12:15:33;;;;;;;14.38;7.95;;;4.90;99.60;;;;;;4995607;28;20038;-68
2020/12/11 12:18:04;;;;;;;16.92;7.65;;;4.90;99.60;;;;;;4995592;28;20023;-68
2020/12/11 12:20:54;;;;;;;15.32;7.70;;;4.90;99.60;;;;;;4981198;28;20342;-68
2020/12/11 12:31:43;;;;;;;19.17;9.02;;;4.90;99.80;;;;;;4980106;28;20069;-71
2020/12/11 12:42:39;;;;;;;16.90;7.65;;;5.00;99.70;;;;;;4979983;28;20026;-69
2020/12/11 12:45:08;;;;;;;16.17;8.23;;;5.00;99.80;;;;;;4979895;28;20438;-69
2020/12/11 12:47:40;;;;;;;16.15;8.27;;;5.10;99.50;;;;;;4980454;28;20106;-69
2020/12/11 12:50:09;;;;;;;15.35;7.13;;;5.00;99.60;;;;;;4980418;28;20033;-69
2020/12/11 12:52:38;;;;;;;15.50;7.50;;;5.10;99.50;;;;;;4979977;28;20427;-69
2020/12/11 12:55:07;;;;;;;14.10;6.50;;;5.00;99.90;;;;;;4980264;28;20077;-69
2020/12/11 12:57:45;;;;;;;22.67;8.65;;;5.00;99.40;;;;;;4980758;28;20304;-69
2020/12/11 13:05:30;;;;;;;16.63;7.80;;;5.10;99.90;;;;;;4978827;28;20034;-69
2020/12/11 13:08:02;;;;;;;17.48;8.10;;;5.10;99.60;;;;;;4978581;28;20463;-69
2020/12/11 13:10:31;;;;;;;14.65;7.43;;;5.10;99.90;;;;;;4978897;28;20031;-69
2020/12/11 13:12:58;;;;;;;17.95;7.80;;;5.10;99.60;;;;;;4978581;28;20407;-69
2020/12/11 13:15:26;;;;;;;18.50;8.93;;;5.20;99.70;;;;;;4978748;28;20054;-69
2020/12/11 13:17:54;;;;;;;17.95;7.75;;;5.20;99.80;;;;;;4993797;28;20031;-69
2020/12/11 13:20:28;;;;;;;19.00;7.85;;;5.20;99.50;;;;;;4993527;28;20034;-69
2020/12/11 13:25:23;;;;;;;16.70;7.88;;;5.20;99.30;;;;;;4979037;28;20056;-69
2020/12/11 13:26:13;;;;;;;16.35;7.78;;;5.20;98.90;;;;;;4978471;28;20031;-69
2020/12/11 13:28:36;;;;;;;17.25;7.68;;;5.20;99.40;;;;;;4978518;28;20022;-69
2020/12/11 13:31:04;;;;;;;16.80;8.10;;;5.20;98.80;;;;;;4978675;28;20027;-69
2020/12/11 13:33:32;;;;;;;15.15;6.88;;;5.20;99.00;;;;;;4978583;28;20019;-69
2020/12/11 13:35:59;;;;;;;17.17;7.88;;;5.20;98.50;;;;;;4977167;28;20335;-69
2020/12/11 13:38:27;;;;;;;16.52;6.60;;;5.20;98.80;;;;;;4993339;28;20023;-69
2020/12/11 13:40:55;;;;;;;17.25;8.25;;;5.10;98.70;;;;;;4978034;28;20370;-69
2020/12/11 13:43:23;;;;;;;16.75;7.20;;;5.10;98.90;;;;;;4978521;28;20019;-69
2020/12/11 13:45:50;;;;;;;18.73;9.20;;;5.10;99.00;;;;;;4977956;28;20033;-69